Time;durP1;ratioP1;P1;durP2;ratioP2;P2;SDS_P1;SDS_P2;PMS_P1;PMS_P2;Temp;Humidity;BMP_temperature;BMP_pressure;BME280_temperature;BME280_humidity;BME280_pressure;Samples;Min_cycle;Max_cycle;Signal;HPM_P1;HPM_P2
2023/10/06 00:00:33;;;;;;;0.93;0.77;;;;;;;-143.84;81.53;45083.34;5109971;28;21005;-61
2023/10/06 00:03:04;;;;;;;1.63;1.17;;;;;;;-143.84;81.54;45077.63;5109941;28;20469;-61
2023/10/06 00:05:34;;;;;;;2.03;0.93;;;;;;;-143.84;81.50;45096.66;5110234;28;20471;-61
2023/10/06 00:08:04;;;;;;;1.97;0.80;;;;;;;-143.84;81.43;45090.97;5110002;28;20458;-61
2023/10/06 00:10:32;;;;;;;0.90;0.60;;;;;;;-143.84;81.48;45092.88;5110320;27;20536;-61
2023/10/06 00:12:59;;;;;;;0.90;0.50;;;;;;;-143.84;81.10;45111.91;5109820;28;20442;-61
2023/10/06 00:15:35;;;;;;;2.80;1.57;;;;;;;-143.84;80.82;45106.19;5110006;28;20443;-61
2023/10/06 00:18:07;;;;;;;1.80;1.47;;;;;;;-143.84;80.60;45111.91;5109343;28;20481;-61
2023/10/06 00:20:48;;;;;;;1.37;0.60;;;;;;;-143.84;80.32;45090.97;5109773;28;20486;-61
2023/10/06 00:23:20;;;;;;;0.90;0.50;;;;;;;-143.84;79.78;45092.88;5109703;28;20447;-61
2023/10/06 00:25:51;;;;;;;1.23;1.00;;;;;;;-143.84;78.61;45113.81;5109778;28;20525;-61
2023/10/06 00:28:19;;;;;;;2.00;1.23;;;;;;;-143.84;78.05;45117.63;5108459;28;21032;-61
2023/10/06 00:30:49;;;;;;;1.10;0.60;;;;;;;-143.84;77.63;45100.47;5088490;28;20447;-61
2023/10/06 00:33:17;;;;;;;0.87;0.53;;;;;;;-143.84;76.97;45092.88;5088335;28;21036;-61
2023/10/06 00:35:48;;;;;;;1.80;0.97;;;;;;;-143.84;76.51;45062.41;5088354;28;20509;-61
2023/10/06 00:38:17;;;;;;;1.10;1.00;;;;;;;-143.84;75.75;45087.16;5089060;28;20479;-61
2023/10/06 00:40:52;;;;;;;0.90;0.60;;;;;;;-143.84;74.75;45108.09;5088659;28;20475;-62
2023/10/06 00:43:36;;;;;;;1.73;0.83;;;;;;;-143.84;73.76;45092.88;5088539;28;20965;-62
2023/10/06 00:46:06;;;;;;;2.07;1.47;;;;;;;-143.84;72.20;45087.16;5088755;28;20976;-60
2023/10/06 00:48:38;;;;;;;3.43;0.90;;;;;;;-143.84;71.54;45110.00;5088869;28;20455;-60
2023/10/06 00:51:12;;;;;;;1.10;0.70;;;;;;;-143.84;70.84;45085.25;5089098;28;20451;-60
2023/10/06 00:53:40;;;;;;;4.07;1.80;;;;;;;-143.84;70.50;45083.34;5089042;28;20455;-60
2023/10/06 00:56:10;;;;;;;1.07;0.97;;;;;;;-143.84;70.67;45090.97;5089099;28;20446;-60
2023/10/06 00:58:41;;;;;;;1.20;1.03;;;;;;;-143.84;70.29;45110.00;5089028;28;20493;-60
2023/10/06 01:01:12;;;;;;;1.50;1.07;;;;;;;-143.84;71.48;45071.91;5088864;28;20850;-60
2023/10/06 01:03:39;;;;;;;1.73;1.13;;;;;;;-143.84;71.98;45106.19;5089234;28;20521;-60
2023/10/06 01:06:12;;;;;;;1.27;0.63;;;;;;;-143.84;73.10;45094.78;5088959;28;20432;-60
2023/10/06 01:08:45;;;;;;;1.00;0.83;;;;;;;-143.84;74.27;45110.00;5088858;28;20895;-60
2023/10/06 01:11:17;;;;;;;0.80;0.40;;;;;;;-143.84;75.29;45100.47;5089140;28;20845;-60
2023/10/06 01:13:55;;;;;;;6.10;2.30;;;;;;;-143.84;76.09;45098.56;5089349;28;20436;-60
2023/10/06 01:16:30;;;;;;;2.30;1.47;;;;;;;-143.84;75.93;45094.78;5088833;28;20848;-60
2023/10/06 01:19:14;;;;;;;0.80;0.40;;;;;;;-143.84;76.28;45092.88;5088696;28;20439;-60
2023/10/06 01:21:45;;;;;;;1.60;1.03;;;;;;;-143.84;76.40;45081.44;5088695;28;20639;-60
2023/10/06 01:24:14;;;;;;;1.10;0.80;;;;;;;-143.84;75.98;45108.09;5088570;28;20448;-60
2023/10/06 01:26:42;;;;;;;2.23;0.73;;;;;;;-143.84;75.95;45081.44;5088657;28;20867;-60
2023/10/06 01:29:13;;;;;;;1.20;0.73;;;;;;;-143.84;76.24;45083.34;5088629;28;20570;-60
2023/10/06 01:31:41;;;;;;;0.87;0.57;;;;;;;-143.84;76.53;45104.28;5088406;28;20490;-60
2023/10/06 01:34:10;;;;;;;1.07;0.83;;;;;;;-143.84;76.46;45119.53;5088498;28;20493;-60
2023/10/06 01:36:38;;;;;;;0.80;0.40;;;;;;;-143.84;76.02;45113.81;5092325;28;20439;-60
2023/10/06 01:39:16;;;;;;;2.90;0.87;;;;;;;-143.84;75.83;45096.66;5092459;28;20463;-60
2023/10/06 01:41:47;;;;;;;1.47;0.90;;;;;;;-143.84;75.99;45079.53;5092224;28;20498;-60
2023/10/06 01:44:15;;;;;;;1.07;0.73;;;;;;;-143.84;75.73;45092.88;5092712;28;21383;-60
2023/10/06 01:46:43;;;;;;;0.90;0.50;;;;;;;-143.84;75.31;45110.00;5092736;28;20443;-60
2023/10/06 01:49:11;;;;;;;1.23;0.77;;;;;;;-143.84;75.12;45094.78;5092548;28;20519;-60
2023/10/06 01:51:38;;;;;;;3.07;0.87;;;;;;;-143.84;74.95;45106.19;5092179;28;20459;-60
2023/10/06 01:54:07;;;;;;;1.03;0.77;;;;;;;-143.84;75.27;45098.56;5092405;28;20440;-60
2023/10/06 01:56:35;;;;;;;1.97;1.30;;;;;;;-143.84;74.84;45110.00;5092388;28;20474;-60
2023/10/06 01:59:05;;;;;;;1.27;0.73;;;;;;;-143.84;74.59;45085.25;5092327;28;20983;-60
2023/10/06 02:01:32;;;;;;;1.00;0.87;;;;;;;-143.84;74.09;45075.72;5092025;28;20989;-60
2023/10/06 02:03:59;;;;;;;0.90;0.70;;;;;;;-143.84;73.77;45119.53;5092001;28;20448;-60
2023/10/06 02:06:27;;;;;;;0.80;0.40;;;;;;;-143.84;73.45;45083.34;5091800;28;20443;-60
2023/10/06 02:08:54;;;;;;;0.90;0.60;;;;;;;-143.84;73.40;45117.63;5092041;28;20432;-60
2023/10/06 02:11:30;;;;;;;1.10;0.50;;;;;;;-143.84;73.19;45083.34;5092193;28;20428;-60
2023/10/06 02:13:57;;;;;;;1.27;0.77;;;;;;;-143.84;72.63;45111.91;5092129;28;20791;-58
2023/10/06 02:16:27;;;;;;;1.40;0.87;;;;;;;-143.84;72.33;45104.28;5091884;28;20496;-58
2023/10/06 02:18:55;;;;;;;0.90;0.60;;;;;;;-143.84;71.71;45100.47;5091256;28;20455;-58
2023/10/06 02:21:24;;;;;;;2.53;1.00;;;;;;;-143.84;70.96;45079.53;5091099;28;20518;-59
2023/10/06 02:23:52;;;;;;;1.00;0.50;;;;;;;-143.84;70.50;45125.22;5091441;28;20448;-59
2023/10/06 02:26:19;;;;;;;1.27;1.17;;;;;;;-143.84;70.12;45100.47;5090747;28;20524;-58
2023/10/06 02:28:49;;;;;;;0.90;0.57;;;;;;;-143.84;69.65;45117.63;5090706;28;20887;-58
2023/10/06 02:31:18;;;;;;;1.63;0.70;;;;;;;-143.84;69.66;45111.91;5091043;28;20467;-59
2023/10/06 02:33:50;;;;;;;1.00;0.60;;;;;;;-143.84;70.08;45085.25;5090762;28;20489;-58
2023/10/06 02:36:21;;;;;;;0.80;0.50;;;;;;;-143.84;70.37;45087.16;5091453;28;20551;-58
2023/10/06 02:38:48;;;;;;;1.27;1.00;;;;;;;-143.84;70.93;45094.78;5091615;28;20448;-61
2023/10/06 02:41:19;;;;;;;4.07;0.93;;;;;;;-143.84;70.80;45083.34;5091322;28;20479;-61
2023/10/06 02:43:49;;;;;;;1.10;0.53;;;;;;;-143.84;70.74;45104.28;5091285;28;20538;-61
2023/10/06 02:46:20;;;;;;;0.80;0.40;;;;;;;-143.84;70.49;45108.09;5090002;28;20436;-61
2023/10/06 02:48:52;;;;;;;5.03;0.90;;;;;;;-143.84;69.70;45096.66;5091115;28;20448;-61
2023/10/06 02:51:23;;;;;;;1.00;0.70;;;;;;;-143.84;68.27;45100.47;5091056;28;20448;-61
2023/10/06 02:54:09;;;;;;;2.30;1.47;;;;;;;-143.84;67.06;45108.09;5091134;28;20443;-61
2023/10/06 02:56:38;;;;;;;1.93;1.03;;;;;;;-143.84;66.30;45089.06;5090987;28;20492;-61
2023/10/06 02:59:20;;;;;;;0.80;0.50;;;;;;;-143.84;65.39;45079.53;5091110;28;20527;-61
2023/10/06 03:01:51;;;;;;;1.20;0.70;;;;;;;-143.84;64.40;45102.38;5091121;28;20482;-61
2023/10/06 03:04:25;;;;;;;0.90;0.70;;;;;;;-143.84;63.41;45102.38;5091248;28;20523;-58
2023/10/06 03:06:55;;;;;;;1.67;1.57;;;;;;;-143.84;62.29;45110.00;5091245;28;20820;-58
2023/10/06 03:09:28;;;;;;;1.37;1.27;;;;;;;-143.84;61.00;45081.44;5090386;28;20447;-58
2023/10/06 03:11:59;;;;;;;1.07;0.97;;;;;;;-143.84;59.99;45077.63;5089902;28;20448;-58
2023/10/06 03:14:38;;;;;;;1.00;0.70;;;;;;;-143.84;58.64;45087.16;5090297;28;20569;-58
2023/10/06 03:17:08;;;;;;;0.80;0.50;;;;;;;-143.84;57.81;45090.97;5090259;28;20520;-58
2023/10/06 03:19:40;;;;;;;5.93;1.70;;;;;;;-143.84;57.31;45094.78;5090008;28;20483;-58
2023/10/06 03:22:09;;;;;;;1.47;1.00;;;;;;;-143.84;56.74;45104.28;5089899;28;20483;-59
2023/10/06 03:24:45;;;;;;;1.37;0.53;;;;;;;-143.84;56.04;45070.00;5090683;28;20523;-58
2023/10/06 03:27:14;;;;;;;1.30;1.00;;;;;;;-143.84;55.91;45115.72;5090169;28;20968;-58
2023/10/06 03:29:48;;;;;;;1.77;0.83;;;;;;;-143.84;55.28;45073.81;5090448;28;20440;-58
2023/10/06 03:32:27;;;;;;;3.67;1.23;;;;;;;-143.84;55.22;45090.97;5097654;28;20524;-58
2023/10/06 03:34:57;;;;;;;4.40;2.40;;;;;;;-143.84;54.73;45060.50;5108670;28;20540;-58
2023/10/06 03:37:38;;;;;;;2.50;0.93;;;;;;;-143.84;55.10;45098.56;5110149;28;20442;-58
2023/10/06 03:40:21;;;;;;;1.40;0.63;;;;;;;-143.84;54.71;45110.00;5110391;28;21360;-58
2023/10/06 03:42:49;;;;;;;1.37;1.03;;;;;;;-143.84;54.24;45070.00;5108116;28;21799;-59
2023/10/06 03:45:26;;;;;;;1.57;0.87;;;;;;;-143.84;53.96;45102.38;5110515;28;20438;-58
2023/10/06 03:48:08;;;;;;;1.10;0.80;;;;;;;-143.84;53.86;45094.78;5108198;28;20442;-59
2023/10/06 03:50:40;;;;;;;1.00;0.80;;;;;;;-143.84;53.47;45079.53;5110558;28;20435;-58
2023/10/06 03:53:08;;;;;;;1.10;0.80;;;;;;;-143.84;53.10;45070.00;5110393;27;20435;-59
2023/10/06 03:55:39;;;;;;;1.50;1.20;;;;;;;-143.84;53.35;45075.72;5110372;28;20504;-59
2023/10/06 03:58:08;;;;;;;0.90;0.70;;;;;;;-143.84;53.12;45077.63;5110226;28;20439;-59
2023/10/06 04:00:38;;;;;;;0.90;0.70;;;;;;;-143.84;53.10;45092.88;5110308;28;20495;-59
2023/10/06 04:03:07;;;;;;;0.90;0.60;;;;;;;-143.84;53.11;45075.72;5110227;28;20536;-59
2023/10/06 04:05:37;;;;;;;1.10;0.80;;;;;;;-143.84;53.35;45090.97;5110098;28;20451;-59
2023/10/06 04:08:11;;;;;;;2.27;1.13;;;;;;;-143.84;53.46;45090.97;5110389;28;20925;-58
2023/10/06 04:10:40;;;;;;;3.07;1.27;;;;;;;-143.84;53.42;45071.91;5109857;28;20503;-59
2023/10/06 04:13:10;;;;;;;1.00;0.90;;;;;;;-143.84;53.60;45087.16;5109721;28;20434;-58
2023/10/06 04:15:38;;;;;;;0.80;0.50;;;;;;;-143.84;53.70;45079.53;5110268;28;20450;-58
2023/10/06 04:18:09;;;;;;;0.93;0.80;;;;;;;-143.84;53.54;45075.72;5110157;28;20436;-58
2023/10/06 04:20:37;;;;;;;1.10;0.70;;;;;;;-143.84;53.56;45085.25;5110222;28;20439;-58
2023/10/06 04:23:07;;;;;;;0.80;0.40;;;;;;;-143.84;53.82;45075.72;5110248;28;20447;-59
2023/10/06 04:25:37;;;;;;;1.10;0.70;;;;;;;-143.84;54.21;45090.97;5109986;28;20527;-59
2023/10/06 04:28:08;;;;;;;1.70;1.00;;;;;;;-143.84;54.45;45090.97;5109878;28;20443;-59
2023/10/06 04:30:35;;;;;;;0.90;0.70;;;;;;;-143.84;54.45;45077.63;5109435;28;20447;-60
2023/10/06 04:33:03;;;;;;;1.00;0.70;;;;;;;-143.84;54.34;45083.34;5109896;28;20501;-59
2023/10/06 04:35:32;;;;;;;1.60;1.13;;;;;;;-143.84;54.64;45087.16;5109982;28;20534;-59
2023/10/06 04:38:01;;;;;;;1.57;1.47;;;;;;;-143.84;54.61;45073.81;5109452;28;20451;-58
2023/10/06 04:40:29;;;;;;;1.07;0.73;;;;;;;-143.84;54.99;45102.38;5109533;28;20439;-58
2023/10/06 04:42:57;;;;;;;0.80;0.40;;;;;;;-143.84;55.02;45092.88;5109349;28;20474;-58
2023/10/06 04:45:25;;;;;;;2.17;1.57;;;;;;;-143.84;55.13;45087.16;5109459;28;20496;-58
2023/10/06 04:47:55;;;;;;;1.20;0.90;;;;;;;-143.84;55.20;45119.53;5109508;28;20932;-58
2023/10/06 04:50:23;;;;;;;5.60;0.80;;;;;;;-143.84;55.43;45075.72;5109511;28;20442;-58
2023/10/06 04:52:50;;;;;;;1.40;1.03;;;;;;;-143.84;55.21;45092.88;5109309;28;20450;-58
2023/10/06 04:55:18;;;;;;;0.90;0.80;;;;;;;-143.84;55.05;45045.25;5109591;28;20870;-58
2023/10/06 04:57:48;;;;;;;1.07;0.97;;;;;;;-143.84;55.47;45073.81;5109398;28;20482;-58
2023/10/06 05:00:19;;;;;;;1.77;1.10;;;;;;;-143.84;56.10;45090.97;5109531;28;20439;-58
2023/10/06 05:02:47;;;;;;;1.10;1.00;;;;;;;-143.84;56.65;45075.72;5109154;28;20531;-58
2023/10/06 05:05:19;;;;;;;0.80;0.60;;;;;;;-143.84;57.07;45075.72;5109482;28;20861;-58
2023/10/06 05:07:46;;;;;;;0.90;0.50;;;;;;;-143.84;57.28;45073.81;5109322;28;20450;-58
2023/10/06 05:10:14;;;;;;;1.70;1.30;;;;;;;-143.84;57.63;45064.31;5108358;28;20537;-58
2023/10/06 05:12:42;;;;;;;1.07;0.90;;;;;;;-143.84;58.08;45056.69;5109306;28;20460;-58
2023/10/06 05:15:17;;;;;;;1.33;1.23;;;;;;;-143.84;58.33;45071.91;5109183;28;20529;-58
2023/10/06 05:17:44;;;;;;;1.20;1.10;;;;;;;-143.84;58.08;45062.41;5109413;28;20491;-58
2023/10/06 05:20:19;;;;;;;2.00;1.37;;;;;;;-143.84;58.22;45079.53;5109355;28;21149;-59
2023/10/06 05:22:50;;;;;;;1.00;0.80;;;;;;;-143.84;58.12;45094.78;5108997;28;21843;-58
2023/10/06 05:25:19;;;;;;;0.87;0.53;;;;;;;-143.84;57.98;45073.81;5109233;28;20577;-59
2023/10/06 05:27:47;;;;;;;1.23;0.70;;;;;;;-143.84;57.99;45079.53;5109160;28;20521;-59
2023/10/06 05:30:17;;;;;;;1.33;0.60;;;;;;;-143.84;58.01;45075.72;5109060;28;20439;-59
2023/10/06 05:32:44;;;;;;;1.50;0.80;;;;;;;-143.84;58.27;45083.34;5108644;28;20507;-59
2023/10/06 05:35:13;;;;;;;1.97;1.33;;;;;;;-143.84;58.84;45047.16;5108900;28;20439;-59
2023/10/06 05:37:44;;;;;;;1.10;0.87;;;;;;;-143.84;58.73;45157.59;5108778;28;20447;-59
2023/10/06 05:40:20;;;;;;;3.23;1.60;;;;;;;-143.84;58.65;45047.16;5109204;28;20443;-59
2023/10/06 05:42:49;;;;;;;1.37;0.80;;;;;;;-143.84;58.33;45066.22;5108850;28;20508;-58
2023/10/06 05:45:19;;;;;;;1.50;1.17;;;;;;;-143.84;57.72;45052.88;5108878;28;20454;-59
2023/10/06 05:47:47;;;;;;;1.00;0.90;;;;;;;-143.84;57.40;45075.72;5108731;28;20916;-59
2023/10/06 05:50:26;;;;;;;1.30;0.90;;;;;;;-143.84;56.93;45047.16;5108014;28;20826;-59
2023/10/06 05:52:59;;;;;;;0.90;0.60;;;;;;;-143.84;56.28;45075.72;5107668;28;20439;-59
2023/10/06 05:55:35;;;;;;;2.80;0.83;;;;;;;-143.84;55.36;45081.44;5107831;28;20867;-58
2023/10/06 05:58:03;;;;;;;2.60;1.37;;;;;;;-143.84;55.03;45070.00;5108394;28;20495;-59
2023/10/06 06:00:33;;;;;;;1.97;0.93;;;;;;;-143.84;53.21;45075.72;5108577;28;20444;-59
2023/10/06 06:03:10;;;;;;;1.30;1.00;;;;;;;-143.84;52.64;45070.00;5107991;28;20483;-59
2023/10/06 06:05:38;;;;;;;0.80;0.50;;;;;;;-143.84;52.12;45028.13;5107989;28;20443;-58
2023/10/06 06:08:08;;;;;;;1.10;0.70;;;;;;;-143.84;52.04;45058.59;5107783;28;20443;-58
2023/10/06 06:10:35;;;;;;;1.20;0.90;;;;;;;-143.84;52.03;45037.66;5107818;28;20454;-58
2023/10/06 06:13:03;;;;;;;2.70;0.87;;;;;;;-143.84;51.93;45041.44;5108235;28;20447;-59
2023/10/06 06:15:32;;;;;;;0.90;0.57;;;;;;;-143.84;52.26;45066.22;5108685;28;20446;-59
2023/10/06 06:18:00;;;;;;;2.07;1.63;;;;;;;-143.84;51.98;45075.72;5108664;28;20549;-59
2023/10/06 06:20:28;;;;;;;1.10;0.93;;;;;;;-143.84;52.24;45060.50;5109196;28;20464;-59
2023/10/06 06:22:58;;;;;;;2.30;0.87;;;;;;;-143.84;52.68;45060.50;5112275;28;21037;-59
2023/10/06 06:25:26;;;;;;;1.00;0.83;;;;;;;-143.84;53.07;45045.25;5112828;28;20491;-58
2023/10/06 06:27:54;;;;;;;1.00;0.83;;;;;;;-143.84;53.35;45062.41;5112604;28;20447;-58
2023/10/06 06:30:23;;;;;;;1.50;1.40;;;;;;;-143.84;53.92;45068.13;5112381;27;20446;-59
2023/10/06 06:32:53;;;;;;;1.00;0.60;;;;;;;-143.84;54.09;45071.91;5112103;28;20987;-58
2023/10/06 06:35:21;;;;;;;1.83;0.87;;;;;;;-143.84;54.58;45129.03;5111905;28;20474;-58
2023/10/06 06:37:51;;;;;;;3.07;0.87;;;;;;;-143.84;54.85;45068.13;5112473;28;20866;-58
2023/10/06 06:40:20;;;;;;;1.20;1.10;;;;;;;-143.84;54.86;45071.91;5112172;28;20451;-58
2023/10/06 06:42:48;;;;;;;2.43;1.67;;;;;;;-143.84;55.12;45047.16;5112370;28;20735;-61
2023/10/06 06:45:16;;;;;;;1.10;0.70;;;;;;;-143.84;54.84;45054.78;5111804;28;20471;-61
2023/10/06 06:47:43;;;;;;;1.00;0.87;;;;;;;-143.84;54.22;45073.81;5111667;28;20446;-61
2023/10/06 06:50:13;;;;;;;1.00;0.77;;;;;;;-143.84;54.46;45031.94;5111425;28;20443;-61
2023/10/06 06:52:40;;;;;;;1.63;1.20;;;;;;;-143.84;54.54;45047.16;5111372;28;20508;-58
2023/10/06 06:55:12;;;;;;;0.93;0.63;;;;;;;-143.84;54.07;45047.16;5111179;28;20508;-58
2023/10/06 06:57:43;;;;;;;1.73;0.93;;;;;;;-143.84;53.81;45043.34;5111282;28;20806;-58
2023/10/06 07:00:15;;;;;;;2.13;1.27;;;;;;;-143.84;53.61;45049.06;5111108;28;20443;-58
2023/10/06 07:02:44;;;;;;;1.47;1.37;;;;;;;-143.84;53.19;45050.97;5111279;28;20483;-58
2023/10/06 07:05:13;;;;;;;1.37;1.03;;;;;;;-143.84;53.42;45039.53;5111855;28;20496;-58
2023/10/06 07:07:43;;;;;;;1.30;0.90;;;;;;;-143.84;53.75;45083.34;5111493;28;20973;-58
2023/10/06 07:10:13;;;;;;;1.37;0.80;;;;;;;-143.84;53.85;45071.91;5111426;28;20940;-58
2023/10/06 07:12:41;;;;;;;3.43;1.80;;;;;;;-143.84;54.52;45062.41;5111222;28;20454;-58
2023/10/06 07:15:14;;;;;;;1.50;0.87;;;;;;;-143.84;54.06;45049.06;5111063;28;20447;-58
2023/10/06 07:17:45;;;;;;;0.90;0.70;;;;;;;-143.84;54.18;45041.44;5111272;28;20965;-58
2023/10/06 07:20:16;;;;;;;1.10;0.70;;;;;;;-143.84;53.92;45068.13;5111181;28;20439;-58
2023/10/06 07:22:45;;;;;;;1.10;0.93;;;;;;;-143.84;54.01;45068.13;5111350;28;20574;-59
2023/10/06 07:25:12;;;;;;;2.90;0.70;;;;;;;-143.84;53.69;45052.88;5111033;28;20447;-59
2023/10/06 07:27:40;;;;;;;3.40;1.13;;;;;;;-143.84;54.14;45056.69;5110901;28;20442;-59
2023/10/06 07:30:10;;;;;;;1.00;0.80;;;;;;;-143.84;54.40;45033.84;5111116;28;20873;-59
2023/10/06 07:32:41;;;;;;;1.73;0.87;;;;;;;-143.84;54.26;45071.91;5109878;28;20511;-59
2023/10/06 07:35:11;;;;;;;1.50;1.27;;;;;;;-143.84;54.58;45056.69;5110739;28;20854;-58
2023/10/06 07:37:42;;;;;;;1.00;0.60;;;;;;;-143.84;54.22;45052.88;5110876;28;20443;-58
2023/10/06 07:40:14;;;;;;;1.10;0.70;;;;;;;-143.84;54.05;45028.13;5110658;28;20921;-59
2023/10/06 07:42:42;;;;;;;2.17;1.40;;;;;;;-143.84;53.24;45068.13;5110409;28;20478;-59
2023/10/06 07:45:10;;;;;;;1.03;0.93;;;;;;;-143.84;53.70;45028.13;5110939;28;20439;-59
2023/10/06 07:47:39;;;;;;;1.10;0.80;;;;;;;-143.84;52.89;45045.25;5110817;28;20438;-58
2023/10/06 07:50:07;;;;;;;1.20;0.97;;;;;;;-143.84;52.76;45039.53;5110349;28;20442;-59
2023/10/06 07:52:37;;;;;;;1.87;1.77;;;;;;;-143.84;51.12;45077.63;5110450;28;20442;-59
2023/10/06 07:55:09;;;;;;;3.70;1.53;;;;;;;-143.84;50.64;45033.84;5110999;28;20443;-59
2023/10/06 07:57:40;;;;;;;2.23;1.33;;;;;;;-143.84;49.46;45028.13;5110472;28;20978;-59
2023/10/06 08:00:09;;;;;;;1.73;0.90;;;;;;;-143.84;47.96;45039.53;5110403;28;20442;-59
2023/10/06 08:02:39;;;;;;;1.73;1.63;;;;;;;-143.84;48.54;45028.13;5110209;28;20565;-59
2023/10/06 08:05:11;;;;;;;1.13;1.00;;;;;;;-143.84;48.79;45047.16;5110189;28;20438;-58
2023/10/06 08:07:39;;;;;;;1.63;1.53;;;;;;;-143.84;48.68;45041.44;5110164;28;20443;-59
2023/10/06 08:10:13;;;;;;;1.30;1.20;;;;;;;-143.84;48.11;45031.94;5110148;28;20806;-59
2023/10/06 08:12:43;;;;;;;1.20;1.00;;;;;;;-143.84;48.10;45024.31;5110264;27;20451;-59
2023/10/06 08:15:11;;;;;;;1.70;1.30;;;;;;;-143.84;48.69;45087.16;5110116;28;20452;-59
2023/10/06 08:17:38;;;;;;;3.00;0.93;;;;;;;-143.84;50.16;45035.75;5110286;27;20454;-59
2023/10/06 08:20:07;;;;;;;1.27;1.13;;;;;;;-143.84;49.48;45043.34;5110028;28;20443;-58
2023/10/06 08:22:34;;;;;;;1.53;1.43;;;;;;;-143.84;49.53;45030.03;5109861;28;20562;-58
2023/10/06 08:25:05;;;;;;;2.63;0.83;;;;;;;-143.84;51.08;45026.22;5109979;28;20540;-58
2023/10/06 08:27:34;;;;;;;1.33;1.00;;;;;;;-143.84;52.14;45016.69;5109906;28;20454;-59
2023/10/06 08:30:01;;;;;;;1.43;1.20;;;;;;;-143.84;52.28;45024.31;5109544;28;20442;-59
2023/10/06 08:32:29;;;;;;;1.10;0.77;;;;;;;-143.84;52.24;45033.84;5109574;28;21022;-58
2023/10/06 08:34:56;;;;;;;0.90;0.50;;;;;;;-143.84;51.69;45010.97;5109797;28;20450;-59
2023/10/06 08:37:23;;;;;;;1.47;1.27;;;;;;;-143.84;48.85;45026.22;5109709;28;20451;-59
2023/10/06 08:39:50;;;;;;;0.90;0.60;;;;;;;-143.84;46.99;45031.94;5109679;28;20431;-58
2023/10/06 08:42:18;;;;;;;1.00;0.80;;;;;;;-143.84;45.46;45010.97;5109673;27;20479;-58
2023/10/06 08:44:47;;;;;;;1.23;0.80;;;;;;;-143.84;45.15;45026.22;5109469;28;20599;-60
2023/10/06 08:47:15;;;;;;;1.00;0.70;;;;;;;-143.84;45.51;45056.69;5109498;28;20821;-60
2023/10/06 08:49:42;;;;;;;1.00;0.77;;;;;;;-143.84;44.80;45014.78;5108539;28;21001;-60
2023/10/06 08:52:12;;;;;;;1.70;1.10;;;;;;;-143.84;45.34;45022.41;5108586;28;20521;-61
2023/10/06 08:54:41;;;;;;;1.00;0.87;;;;;;;-143.84;45.40;45026.22;5108570;28;20478;-61
2023/10/06 08:57:11;;;;;;;2.50;1.23;;;;;;;-143.84;45.27;45012.88;5108797;28;20457;-61
2023/10/06 08:59:39;;;;;;;1.10;0.83;;;;;;;-143.84;44.64;44997.66;5108640;28;20443;-61
2023/10/06 09:02:13;;;;;;;2.30;0.97;;;;;;;-143.84;43.48;44999.56;5108654;28;20438;-61
2023/10/06 09:04:40;;;;;;;1.73;0.60;;;;;;;-143.84;43.70;45007.19;5093438;28;20452;-62
2023/10/06 09:07:12;;;;;;;1.40;1.00;;;;;;;-143.84;42.31;44988.13;5088797;28;20436;-62
2023/10/06 09:09:40;;;;;;;1.10;0.97;;;;;;;-143.84;43.05;45005.28;5088477;28;20440;-62
2023/10/06 09:12:09;;;;;;;0.90;0.70;;;;;;;-143.84;43.35;44991.94;5088869;28;20859;-62
2023/10/06 09:14:54;;;;;;;1.47;1.03;;;;;;;-143.84;41.89;44999.56;5088744;28;20448;-62
2023/10/06 09:17:36;;;;;;;0.90;0.77;;;;;;;-143.84;41.66;45010.97;5088780;28;20444;-62
2023/10/06 09:20:04;;;;;;;1.10;0.70;;;;;;;-143.84;41.48;45005.28;5088327;28;20446;-62
2023/10/06 09:22:45;;;;;;;4.40;1.73;;;;;;;-143.84;40.38;45010.97;5088712;28;20479;-62
2023/10/06 09:25:12;;;;;;;1.00;0.67;;;;;;;-143.84;40.02;44988.13;5088753;28;20443;-62
2023/10/06 09:27:41;;;;;;;1.10;0.60;;;;;;;-143.84;39.15;44982.41;5088592;28;20440;-62
2023/10/06 09:30:11;;;;;;;3.53;1.47;;;;;;;-143.84;38.46;45005.28;5088539;28;20476;-62
2023/10/06 09:32:40;;;;;;;1.03;0.73;;;;;;;-143.84;39.09;44990.03;5088262;28;20537;-62
2023/10/06 09:35:20;;;;;;;6.00;2.30;;;;;;;-143.84;38.19;44967.19;5088518;28;20444;-62
2023/10/06 09:37:48;;;;;;;1.50;1.03;;;;;;;-143.84;39.10;44990.03;5088709;28;20448;-62
2023/10/06 09:40:21;;;;;;;2.07;1.20;;;;;;;-143.84;38.69;44965.28;5088665;28;20428;-62
2023/10/06 09:42:49;;;;;;;0.90;0.60;;;;;;;-143.84;38.06;44976.72;5088229;28;20900;-62
2023/10/06 09:45:21;;;;;;;1.40;0.90;;;;;;;-143.84;37.21;44969.09;5088360;28;20506;-62
2023/10/06 09:47:51;;;;;;;1.20;0.77;;;;;;;-143.84;37.58;44944.34;5088284;28;20450;-62
2023/10/06 09:50:22;;;;;;;4.00;1.10;;;;;;;-143.84;37.28;44980.53;5088315;28;21048;-62
2023/10/06 09:52:50;;;;;;;1.20;0.73;;;;;;;-143.84;38.44;44965.28;5088456;28;21046;-62
2023/10/06 09:55:19;;;;;;;1.50;0.90;;;;;;;-143.84;38.16;44953.88;5088434;28;20444;-62
2023/10/06 09:57:48;;;;;;;1.27;0.87;;;;;;;-143.84;37.48;44950.06;5092055;28;20444;-62
2023/10/06 10:00:17;;;;;;;1.77;0.80;;;;;;;-143.84;37.89;44953.88;5092337;28;20439;-62
2023/10/06 10:02:47;;;;;;;1.03;0.90;;;;;;;-143.84;37.82;44982.41;5092293;28;20558;-62
2023/10/06 10:05:18;;;;;;;1.00;0.60;;;;;;;-143.84;37.63;44950.06;5092168;28;20436;-62
2023/10/06 10:07:46;;;;;;;1.00;0.70;;;;;;;-143.84;37.88;44942.44;5092072;28;20782;-61
2023/10/06 10:10:15;;;;;;;1.40;0.80;;;;;;;-143.84;38.04;44965.28;5092020;28;20431;-61
2023/10/06 10:13:07;;;;;;;1.00;0.77;;;;;;;-143.84;38.41;44965.28;5091932;28;20449;-61
2023/10/06 10:15:47;;;;;;;1.00;0.70;;;;;;;-143.84;38.60;44953.88;5092000;28;20440;-61
2023/10/06 10:18:29;;;;;;;0.97;0.87;;;;;;;-143.84;38.46;44969.09;5092089;28;20427;-61
2023/10/06 10:20:59;;;;;;;1.17;0.60;;;;;;;-143.84;39.00;44953.88;5091907;28;20462;-61
2023/10/06 10:23:29;;;;;;;1.57;1.27;;;;;;;-143.84;38.53;44953.88;5091704;28;20572;-61
2023/10/06 10:26:05;;;;;;;1.00;0.87;;;;;;;-143.84;38.92;44953.88;5091607;28;20462;-61
2023/10/06 10:28:32;;;;;;;1.00;0.80;;;;;;;-143.84;39.32;44972.91;5091845;28;20550;-61
2023/10/06 10:31:01;;;;;;;1.50;1.10;;;;;;;-143.84;39.27;44969.09;5091465;28;20483;-61
2023/10/06 10:33:30;;;;;;;2.00;0.93;;;;;;;-143.84;39.35;45001.47;5091528;28;20446;-61
2023/10/06 10:36:23;;;;;;;1.33;0.90;;;;;;;-143.84;39.49;44988.13;5091293;28;21220;-61
2023/10/06 10:39:04;;;;;;;1.10;0.90;;;;;;;-143.84;40.05;44982.41;5088519;28;20938;-61
2023/10/06 10:41:37;;;;;;;0.90;0.73;;;;;;;-143.84;39.85;44976.72;5091343;28;20444;-61
2023/10/06 10:44:11;;;;;;;1.93;1.00;;;;;;;-143.84;39.78;44984.31;5091115;28;20573;-61
2023/10/06 10:46:44;;;;;;;1.43;1.33;;;;;;;-143.84;40.26;44978.63;5091218;28;20450;-61
2023/10/06 10:49:13;;;;;;;1.07;0.87;;;;;;;-143.84;40.68;44995.75;5091551;28;20478;-61
2023/10/06 10:51:54;;;;;;;1.30;0.87;;;;;;;-143.84;40.84;44978.63;5091242;28;20579;-61
2023/10/06 10:54:22;;;;;;;1.10;1.00;;;;;;;-143.84;40.90;44974.81;5091143;28;20535;-61
2023/10/06 10:56:53;;;;;;;1.10;1.00;;;;;;;-143.84;41.21;44967.19;5091312;28;20436;-61
2023/10/06 10:59:22;;;;;;;1.27;0.87;;;;;;;-143.84;41.58;44991.94;5091519;28;20451;-61
2023/10/06 11:01:53;;;;;;;0.90;0.60;;;;;;;-143.84;41.50;45001.47;5091278;28;20992;-61
2023/10/06 11:04:36;;;;;;;1.27;0.80;;;;;;;-143.84;41.98;44980.53;5090924;28;20484;-61
2023/10/06 11:07:15;;;;;;;0.90;0.67;;;;;;;-143.84;41.63;44986.22;5090312;28;20498;-61
2023/10/06 11:09:47;;;;;;;1.10;0.80;;;;;;;-143.84;42.05;44982.41;5090726;28;20451;-61
2023/10/06 11:12:23;;;;;;;3.60;2.10;;;;;;;-143.84;42.27;44988.13;5091015;28;20447;-61
2023/10/06 11:14:51;;;;;;;1.00;0.63;;;;;;;-143.84;42.27;44980.53;5091205;28;20446;-61
2023/10/06 11:17:23;;;;;;;1.27;0.80;;;;;;;-143.84;42.08;44995.75;5090737;28;20444;-61
2023/10/06 11:20:01;;;;;;;1.33;1.10;;;;;;;-143.84;42.39;45003.38;5090516;28;20440;-61
2023/10/06 11:22:30;;;;;;;1.10;0.77;;;;;;;-143.84;42.77;44999.56;5090597;28;20439;-61
2023/10/06 11:25:03;;;;;;;1.03;0.83;;;;;;;-143.84;43.16;44997.66;5090297;28;20567;-61
2023/10/06 11:27:30;;;;;;;1.30;0.70;;;;;;;-143.84;42.71;45005.28;5090498;28;20512;-61
2023/10/06 11:30:00;;;;;;;1.47;0.80;;;;;;;-143.84;43.26;45003.38;5090676;28;20454;-61
2023/10/06 11:32:28;;;;;;;4.80;1.03;;;;;;;-143.84;43.31;45028.13;5089944;28;20483;-61